createdAt,value
2018-10-16T00:01:55.721Z,21.30
2018-10-16T00:04:24.030Z,19.97
2018-10-16T00:06:52.394Z,20.90
2018-10-16T00:09:20.686Z,22.93
2018-10-16T00:12:00.618Z,20.13
2018-10-16T00:14:28.930Z,21.20
2018-10-16T00:16:57.215Z,22.03
2018-10-16T00:19:25.572Z,25.97
2018-10-16T00:21:53.922Z,20.37
2018-10-16T00:24:22.222Z,20.67
2018-10-16T00:26:50.790Z,22.87
2018-10-16T00:29:19.395Z,20.60
2018-10-16T00:31:47.749Z,24.70
2018-10-16T00:34:16.053Z,28.50
2018-10-16T00:36:44.368Z,22.53
2018-10-16T00:39:14.854Z,21.50
2018-10-16T00:41:43.418Z,26.77
2018-10-16T00:44:12.975Z,18.53
2018-10-16T00:46:41.923Z,20.93
2018-10-16T00:49:10.226Z,22.80
2018-10-16T00:51:39.907Z,23.07
2018-10-16T00:54:08.619Z,21.73
2018-10-16T00:56:37.385Z,23.20
2018-10-16T00:59:05.970Z,23.03
2018-10-16T01:01:34.771Z,22.60
2018-10-16T01:04:05.302Z,20.87
2018-10-16T01:06:34.491Z,18.70
2018-10-16T01:09:02.868Z,21.40
2018-10-16T01:11:31.142Z,21.70
2018-10-16T01:13:59.446Z,24.63
2018-10-16T01:16:27.732Z,21.33
2018-10-16T01:18:56.048Z,25.13
2018-10-16T01:21:24.427Z,20.87
2018-10-16T01:23:52.735Z,19.90
2018-10-16T01:26:21.082Z,22.30
2018-10-16T01:28:49.394Z,21.07
2018-10-16T01:31:17.709Z,22.07
2018-10-16T01:33:46.017Z,21.60
2018-10-16T01:36:14.374Z,18.77
2018-10-16T01:38:42.643Z,19.80
2018-10-16T01:41:11.234Z,23.83
2018-10-16T01:43:39.986Z,19.83
2018-10-16T01:46:08.873Z,20.70
2018-10-16T01:48:37.567Z,23.17
2018-10-16T01:51:06.067Z,19.67
2018-10-16T01:53:34.425Z,23.93
2018-10-16T01:56:02.801Z,21.63
2018-10-16T01:58:31.065Z,21.27
2018-10-16T02:00:59.402Z,21.20
2018-10-16T02:03:27.676Z,21.43
2018-10-16T02:05:55.972Z,23.93
2018-10-16T02:08:24.305Z,21.90
2018-10-16T02:10:52.602Z,22.30
2018-10-16T02:13:20.949Z,29.80
2018-10-16T02:15:49.282Z,22.33
2018-10-16T02:18:17.583Z,22.80
2018-10-16T02:20:45.915Z,23.70
2018-10-16T02:23:14.235Z,24.13
2018-10-16T02:25:42.552Z,25.47
2018-10-16T02:28:10.872Z,26.20
2018-10-16T02:30:39.242Z,27.27
2018-10-16T02:33:07.596Z,29.50
2018-10-16T02:35:35.929Z,22.43
2018-10-16T02:38:04.543Z,22.63
2018-10-16T02:40:32.923Z,24.73
2018-10-16T02:43:01.326Z,25.93
2018-10-16T02:45:29.603Z,27.40
2018-10-16T02:47:57.895Z,27.10
2018-10-16T02:50:26.184Z,24.93
2018-10-16T02:52:54.473Z,22.83
2018-10-16T02:55:22.751Z,25.50
2018-10-16T02:57:51.039Z,24.13
2018-10-16T03:00:19.347Z,28.87
2018-10-16T03:02:47.627Z,22.70
2018-10-16T03:05:15.914Z,26.37
2018-10-16T03:07:44.187Z,27.10
2018-10-16T03:10:12.462Z,28.00
2018-10-16T03:12:40.778Z,30.70
2018-10-16T03:15:11.570Z,24.13
2018-10-16T03:17:40.074Z,22.30
2018-10-16T03:20:09.255Z,28.20
2018-10-16T03:22:38.043Z,27.37
2018-10-16T03:25:07.533Z,27.00
2018-10-16T03:27:35.834Z,25.40
2018-10-16T03:30:04.761Z,29.43
2018-10-16T03:32:33.073Z,25.77
2018-10-16T03:35:01.363Z,29.37
2018-10-16T03:37:29.650Z,31.30
2018-10-16T03:39:57.979Z,28.03
2018-10-16T03:42:26.412Z,27.33
2018-10-16T03:44:54.718Z,25.97
2018-10-16T03:47:23.014Z,29.00
2018-10-16T03:49:51.286Z,31.70
2018-10-16T03:52:19.574Z,27.20
2018-10-16T03:54:47.872Z,28.57
2018-10-16T03:57:16.227Z,30.00
2018-10-16T03:59:44.459Z,29.30
2018-10-16T04:02:12.748Z,29.37
2018-10-16T04:04:41.049Z,29.93
2018-10-16T04:07:09.373Z,28.40
2018-10-16T04:09:37.654Z,29.13
2018-10-16T04:12:06.315Z,25.93
2018-10-16T04:14:34.605Z,33.27
2018-10-16T04:17:02.910Z,27.30
2018-10-16T04:19:31.171Z,29.57
2018-10-16T04:21:59.475Z,25.20
2018-10-16T04:24:27.761Z,28.50
2018-10-16T04:26:56.095Z,28.17
2018-10-16T04:29:24.366Z,26.03
2018-10-16T04:31:52.674Z,26.03
2018-10-16T04:34:20.966Z,24.93
2018-10-16T04:36:49.240Z,25.60
2018-10-16T04:39:17.515Z,26.37
2018-10-16T04:41:45.938Z,30.73
2018-10-16T04:44:14.215Z,26.30
2018-10-16T04:46:42.546Z,24.90
2018-10-16T04:49:10.809Z,26.67
2018-10-16T04:51:39.138Z,24.10
2018-10-16T04:54:07.438Z,26.83
2018-10-16T04:56:35.734Z,30.43
2018-10-16T04:59:04.090Z,27.47
2018-10-16T05:01:32.399Z,24.63
2018-10-16T05:04:00.808Z,31.23
2018-10-16T05:06:29.066Z,28.30
2018-10-16T05:08:57.453Z,31.73
2018-10-16T05:11:25.731Z,27.40
2018-10-16T05:13:54.067Z,29.70
2018-10-16T05:16:22.362Z,25.90
2018-10-16T05:18:50.791Z,29.47
2018-10-16T05:21:19.119Z,28.83
2018-10-16T05:23:47.537Z,25.27
2018-10-16T05:26:15.912Z,27.93
2018-10-16T05:28:44.207Z,30.23
2018-10-16T05:31:12.561Z,31.07
2018-10-16T05:33:40.900Z,27.20
2018-10-16T05:36:09.172Z,27.97
2018-10-16T05:38:37.483Z,28.33
2018-10-16T05:41:05.775Z,34.07
2018-10-16T05:43:34.094Z,26.47
2018-10-16T05:46:02.413Z,26.93
2018-10-16T05:48:30.707Z,33.87
2018-10-16T05:50:59.024Z,28.67
2018-10-16T05:53:27.409Z,27.57
2018-10-16T05:56:00.085Z,32.27
2018-10-16T05:58:28.587Z,29.43
2018-10-16T06:00:56.875Z,31.10
2018-10-16T06:03:25.237Z,32.60
2018-10-16T06:05:53.619Z,29.30
2018-10-16T06:08:21.988Z,35.27
2018-10-16T06:10:50.321Z,33.03
2018-10-16T06:13:18.586Z,28.00
2018-10-16T06:15:47.498Z,32.27
2018-10-16T06:18:15.793Z,31.07
2018-10-16T06:20:44.075Z,32.90
2018-10-16T06:23:12.433Z,29.73
2018-10-16T06:25:40.812Z,29.33
2018-10-16T06:28:14.630Z,30.63
2018-10-16T06:30:42.933Z,35.37
2018-10-16T06:33:11.462Z,39.87
2018-10-16T06:35:39.762Z,31.37
2018-10-16T06:38:08.040Z,34.03
2018-10-16T06:40:36.603Z,32.30
2018-10-16T06:43:05.422Z,31.73
2018-10-16T06:45:33.740Z,32.50
2018-10-16T06:48:02.339Z,30.23
2018-10-16T06:50:30.680Z,32.30
2018-10-16T06:52:59.009Z,33.37
2018-10-16T06:55:27.423Z,26.77
2018-10-16T06:57:55.759Z,28.77
2018-10-16T07:00:24.175Z,29.50
2018-10-16T07:02:52.562Z,35.90
2018-10-16T07:05:20.907Z,29.37
2018-10-16T07:07:49.227Z,24.17
2018-10-16T07:10:17.515Z,27.20
2018-10-16T07:12:45.829Z,26.33
2018-10-16T07:15:14.106Z,22.83
2018-10-16T07:17:42.421Z,27.37
2018-10-16T07:20:10.746Z,32.97
2018-10-16T07:22:39.090Z,31.57
2018-10-16T07:25:09.141Z,29.03
2018-10-16T07:27:37.426Z,26.80
2018-10-16T07:30:08.249Z,26.73
2018-10-16T07:32:36.473Z,26.90
2018-10-16T07:35:06.422Z,29.30
2018-10-16T07:37:34.715Z,27.37
2018-10-16T07:40:03.232Z,27.53
2018-10-16T07:42:31.523Z,25.20
2018-10-16T07:44:59.855Z,26.57
2018-10-16T07:47:28.148Z,26.47
2018-10-16T07:49:56.496Z,31.10
2018-10-16T07:52:24.796Z,29.43
2018-10-16T07:54:53.121Z,26.97
2018-10-16T07:57:21.493Z,32.30
2018-10-16T07:59:49.763Z,29.77
2018-10-16T08:02:18.049Z,32.73
2018-10-16T08:04:46.354Z,23.23
2018-10-16T08:07:14.678Z,30.57
2018-10-16T08:09:42.968Z,24.30
2018-10-16T08:12:11.274Z,25.70
2018-10-16T08:14:39.989Z,24.93
2018-10-16T08:17:08.590Z,29.13
2018-10-16T08:19:37.002Z,27.00
2018-10-16T08:22:05.311Z,25.10
2018-10-16T08:24:33.582Z,27.27
2018-10-16T08:27:01.999Z,26.43
2018-10-16T08:29:30.302Z,31.57
2018-10-16T08:31:58.603Z,23.27
2018-10-16T08:34:26.886Z,24.67
2018-10-16T08:36:55.291Z,25.93
2018-10-16T08:39:27.384Z,28.33
2018-10-16T08:43:13.977Z,23.20
2018-10-16T08:45:53.723Z,25.77
2018-10-16T08:48:33.334Z,23.57
2018-10-16T08:51:12.932Z,27.13
2018-10-16T08:53:41.230Z,22.97
2018-10-16T08:56:09.519Z,21.23
2018-10-16T08:58:37.808Z,21.53
2018-10-16T09:01:06.156Z,21.07
2018-10-16T09:03:34.442Z,20.77
2018-10-16T09:06:02.738Z,21.47
2018-10-16T09:08:31.030Z,20.23
2018-10-16T09:10:59.302Z,21.33
2018-10-16T09:13:27.621Z,24.63
2018-10-16T09:15:55.921Z,22.83
2018-10-16T09:18:24.283Z,20.27
2018-10-16T09:20:52.659Z,23.80
2018-10-16T09:23:20.954Z,18.27
2018-10-16T09:25:49.262Z,19.67
2018-10-16T09:28:17.537Z,20.17
2018-10-16T09:30:45.921Z,25.80
2018-10-16T09:33:14.167Z,21.00
2018-10-16T09:35:42.462Z,21.90
2018-10-16T09:38:10.871Z,22.23
2018-10-16T09:40:39.166Z,23.33
2018-10-16T09:43:07.463Z,30.27
2018-10-16T09:45:35.769Z,24.53
2018-10-16T09:48:04.073Z,25.13
2018-10-16T09:50:32.349Z,27.63
2018-10-16T09:53:00.686Z,21.73
2018-10-16T09:55:28.974Z,26.43
2018-10-16T09:57:57.312Z,27.13
2018-10-16T10:00:31.102Z,23.17
2018-10-16T10:02:59.420Z,22.33
2018-10-16T10:05:27.704Z,24.00
2018-10-16T10:07:56.031Z,30.37
2018-10-16T10:10:24.323Z,25.23
2018-10-16T10:12:52.628Z,25.70
2018-10-16T10:15:20.925Z,25.27
2018-10-16T10:17:49.233Z,26.90
2018-10-16T10:20:17.555Z,20.47
2018-10-16T10:22:45.904Z,19.00
2018-10-16T10:25:14.257Z,19.07
2018-10-16T10:27:42.526Z,22.10
2018-10-16T10:30:11.595Z,24.30
2018-10-16T10:32:39.956Z,22.20
2018-10-16T10:35:09.690Z,22.60
2018-10-16T10:37:37.998Z,25.07
2018-10-16T10:40:06.674Z,18.40
2018-10-16T10:42:35.124Z,24.63
2018-10-16T10:45:03.962Z,20.80
2018-10-16T10:47:32.411Z,21.80
2018-10-16T10:50:00.793Z,20.70
2018-10-16T10:52:29.054Z,21.07
2018-10-16T10:54:57.368Z,22.70
2018-10-16T10:57:25.639Z,18.80
2018-10-16T10:59:53.946Z,16.07
2018-10-16T11:02:22.293Z,20.73
2018-10-16T11:04:50.613Z,16.90
2018-10-16T11:07:18.909Z,21.30
2018-10-16T11:09:47.201Z,13.30
2018-10-16T11:12:15.462Z,11.90
2018-10-16T11:14:43.747Z,13.27
2018-10-16T11:17:12.053Z,13.07
2018-10-16T11:19:40.343Z,17.27
2018-10-16T11:22:08.659Z,11.60
2018-10-16T11:24:36.936Z,14.60
2018-10-16T11:27:05.282Z,13.83
2018-10-16T11:29:33.586Z,16.97
2018-10-16T11:32:01.889Z,14.80
2018-10-16T11:34:30.206Z,12.93
2018-10-16T11:36:58.551Z,13.13
2018-10-16T11:39:26.969Z,11.37
2018-10-16T11:41:55.494Z,14.93
2018-10-16T11:44:23.779Z,14.20
2018-10-16T11:46:52.083Z,12.03
2018-10-16T11:49:20.392Z,9.23
2018-10-16T11:51:48.678Z,12.83
2018-10-16T11:54:16.966Z,18.07
2018-10-16T11:56:45.242Z,11.67
2018-10-16T11:59:13.642Z,16.70
2018-10-16T12:01:41.844Z,14.10
2018-10-16T12:04:10.150Z,18.17
2018-10-16T12:06:38.461Z,9.50
2018-10-16T12:09:08.744Z,12.93
2018-10-16T12:11:37.521Z,14.47
2018-10-16T12:14:06.383Z,12.23
2018-10-16T12:16:40.187Z,15.83
2018-10-16T12:19:16.773Z,14.60
2018-10-16T12:21:44.972Z,11.80
2018-10-16T12:24:13.406Z,12.77
2018-10-16T12:26:41.651Z,11.40
2018-10-16T12:29:09.960Z,12.03
2018-10-16T12:31:38.285Z,12.67
2018-10-16T12:34:06.663Z,10.23
2018-10-16T12:36:34.969Z,15.13
2018-10-16T12:39:03.583Z,11.37
2018-10-16T12:41:31.833Z,11.43
2018-10-16T12:44:00.087Z,11.37
2018-10-16T12:46:28.424Z,9.93
2018-10-16T12:48:56.701Z,13.87
2018-10-16T12:51:25.008Z,9.77
2018-10-16T12:53:53.444Z,9.40
2018-10-16T12:56:21.772Z,7.67
2018-10-16T12:58:50.152Z,9.67
2018-10-16T13:01:18.470Z,8.80
2018-10-16T13:03:46.749Z,9.60
2018-10-16T13:06:15.031Z,7.90
2018-10-16T13:08:43.322Z,7.20
2018-10-16T13:11:11.712Z,10.93
2018-10-16T13:13:39.906Z,9.97
2018-10-16T13:16:08.366Z,9.80
2018-10-16T13:18:36.688Z,8.60
2018-10-16T13:21:05.709Z,10.70
2018-10-16T13:23:34.068Z,7.93
2018-10-16T13:26:02.378Z,6.47
2018-10-16T13:28:30.652Z,6.93
2018-10-16T13:30:58.926Z,8.90
2018-10-16T13:33:27.220Z,9.43
2018-10-16T13:35:55.511Z,10.30
2018-10-16T13:38:23.784Z,8.23
2018-10-16T13:40:52.049Z,6.47
2018-10-16T13:43:20.320Z,7.63
2018-10-16T13:45:48.654Z,7.40
2018-10-16T13:48:16.942Z,5.83
2018-10-16T13:50:45.251Z,7.37
2018-10-16T13:53:13.534Z,6.93
2018-10-16T13:55:41.823Z,9.87
2018-10-16T13:58:10.155Z,7.93
2018-10-16T14:00:38.408Z,6.43
2018-10-16T14:03:06.690Z,7.23
2018-10-16T14:05:34.998Z,7.83
2018-10-16T14:08:03.316Z,10.60
2018-10-16T14:10:31.602Z,8.33
2018-10-16T14:12:59.871Z,9.53
2018-10-16T14:15:28.138Z,7.87
2018-10-16T14:17:56.426Z,10.83
2018-10-16T14:20:24.722Z,13.43
2018-10-16T14:22:53.140Z,7.63
2018-10-16T14:25:21.413Z,7.33
2018-10-16T14:27:49.784Z,6.50
2018-10-16T14:30:18.068Z,8.23
2018-10-16T14:32:46.350Z,7.80
2018-10-16T14:35:14.920Z,10.70
2018-10-16T14:37:43.234Z,11.03
2018-10-16T14:40:14.356Z,7.90
2018-10-16T14:42:42.934Z,8.07
2018-10-16T14:45:12.147Z,11.03
2018-10-16T14:47:40.433Z,8.83
2018-10-16T14:50:09.726Z,7.53
2018-10-16T14:52:37.984Z,13.37
2018-10-16T14:55:06.477Z,11.53
2018-10-16T14:57:34.976Z,9.73
2018-10-16T15:00:03.431Z,7.13
2018-10-16T15:02:31.718Z,15.07
2018-10-16T15:05:00.192Z,7.73
2018-10-16T15:07:28.735Z,8.37
2018-10-16T15:09:57.119Z,8.03
2018-10-16T15:12:30.382Z,8.57
2018-10-16T15:14:58.886Z,8.60
2018-10-16T15:17:27.849Z,11.37
2018-10-16T15:19:56.160Z,8.27
2018-10-16T15:22:24.482Z,7.83
2018-10-16T15:24:52.743Z,7.40
2018-10-16T15:27:21.694Z,9.37
2018-10-16T15:29:49.972Z,9.63
2018-10-16T15:32:18.238Z,8.43
2018-10-16T15:34:46.934Z,7.90
2018-10-16T15:37:15.294Z,8.00
2018-10-16T15:39:43.606Z,10.10
2018-10-16T15:42:11.919Z,10.93
2018-10-16T15:44:40.313Z,10.13
2018-10-16T15:47:08.605Z,11.73
2018-10-16T15:49:36.879Z,8.90
2018-10-16T15:52:05.364Z,12.70
2018-10-16T15:54:33.564Z,11.97
2018-10-16T15:57:01.838Z,11.60
2018-10-16T15:59:30.124Z,12.43
2018-10-16T16:01:58.412Z,10.43
2018-10-16T16:04:26.697Z,8.87
2018-10-16T16:06:55.225Z,11.60
2018-10-16T16:09:23.531Z,9.77
2018-10-16T16:11:51.825Z,14.63
2018-10-16T16:14:20.113Z,15.20
2018-10-16T16:16:48.433Z,11.00
2018-10-16T16:19:16.813Z,18.50
2018-10-16T16:21:45.124Z,12.53
2018-10-16T16:24:13.457Z,13.87
2018-10-16T16:26:41.733Z,12.93
2018-10-16T16:29:10.039Z,8.83
2018-10-16T16:31:38.341Z,11.57
2018-10-16T16:34:07.004Z,15.70
2018-10-16T16:36:35.317Z,13.70
2018-10-16T16:39:04.222Z,14.20
2018-10-16T16:41:32.490Z,15.23
2018-10-16T16:44:00.848Z,11.20
2018-10-16T16:46:29.068Z,9.03
2018-10-16T16:48:57.476Z,10.83
2018-10-16T16:51:25.878Z,11.00
2018-10-16T16:53:54.161Z,14.93
2018-10-16T16:56:22.449Z,10.20
2018-10-16T16:58:50.792Z,12.90
2018-10-16T17:01:19.017Z,12.70
2018-10-16T17:03:47.294Z,16.13
2018-10-16T17:06:22.227Z,12.90
2018-10-16T17:08:50.534Z,11.00
2018-10-16T17:11:19.074Z,11.93
2018-10-16T17:13:47.358Z,13.53
2018-10-16T17:16:15.649Z,10.50
2018-10-16T17:18:43.923Z,14.50
2018-10-16T17:21:12.208Z,18.03
2018-10-16T17:23:40.548Z,9.50
2018-10-16T17:26:09.036Z,16.53
2018-10-16T17:28:37.410Z,16.87
2018-10-16T17:31:05.772Z,9.60
2018-10-16T17:33:34.154Z,14.07
2018-10-16T17:36:02.429Z,14.00
2018-10-16T17:38:30.812Z,10.30
2018-10-16T17:40:59.125Z,10.67
2018-10-16T17:43:27.407Z,7.80
2018-10-16T17:45:55.754Z,8.33
2018-10-16T17:48:24.053Z,11.37
2018-10-16T17:50:52.374Z,13.13
2018-10-16T17:53:20.662Z,10.37
2018-10-16T17:55:48.999Z,10.80
2018-10-16T17:58:17.278Z,10.53
2018-10-16T18:00:45.590Z,10.00
2018-10-16T18:03:13.956Z,9.27
2018-10-16T18:05:42.220Z,10.83
2018-10-16T18:08:10.514Z,9.87
2018-10-16T18:10:38.866Z,13.03
2018-10-16T18:13:07.173Z,11.93
2018-10-16T18:15:35.475Z,10.03
2018-10-16T18:18:03.767Z,9.77
2018-10-16T18:20:32.062Z,9.53
2018-10-16T18:23:00.388Z,15.20
2018-10-16T18:25:28.775Z,11.03
2018-10-16T18:27:57.145Z,10.90
2018-10-16T18:30:25.452Z,17.43
2018-10-16T18:32:53.891Z,9.37
2018-10-16T18:35:22.170Z,10.47
2018-10-16T18:37:50.495Z,11.87
2018-10-16T18:40:18.878Z,10.37
2018-10-16T18:42:47.190Z,11.43
2018-10-16T18:45:15.915Z,10.93
2018-10-16T18:47:44.209Z,10.23
2018-10-16T18:50:13.729Z,15.63
2018-10-16T18:52:42.655Z,16.23
2018-10-16T18:55:12.451Z,12.83
2018-10-16T18:57:40.778Z,14.90
2018-10-16T19:00:11.462Z,13.07
2018-10-16T19:02:39.982Z,11.27
2018-10-16T19:05:09.031Z,16.43
2018-10-16T19:07:37.659Z,14.37
2018-10-16T19:10:06.374Z,13.40
2018-10-16T19:12:35.010Z,12.47
2018-10-16T19:15:03.421Z,12.33
2018-10-16T19:17:31.759Z,11.60
2018-10-16T19:20:00.096Z,12.13
2018-10-16T19:22:28.367Z,14.27
2018-10-16T19:24:56.781Z,11.77
2018-10-16T19:27:25.146Z,12.53
2018-10-16T19:29:53.382Z,14.60
2018-10-16T19:32:21.715Z,11.40
2018-10-16T19:34:49.997Z,12.37
2018-10-16T19:37:18.288Z,14.07
2018-10-16T19:39:46.563Z,13.10
2018-10-16T19:42:14.862Z,15.37
2018-10-16T19:44:43.318Z,10.83
2018-10-16T19:47:11.620Z,15.27
2018-10-16T19:49:39.918Z,12.23
2018-10-16T19:52:08.246Z,11.30
2018-10-16T19:54:36.503Z,11.00
2018-10-16T19:57:04.791Z,10.83
2018-10-16T19:59:33.076Z,12.30
2018-10-16T20:02:01.456Z,9.37
2018-10-16T20:04:29.836Z,8.37
2018-10-16T20:06:58.132Z,9.67
2018-10-16T20:09:26.447Z,10.23
2018-10-16T20:11:54.772Z,12.27
2018-10-16T20:14:23.051Z,10.33
2018-10-16T20:16:51.434Z,9.10
2018-10-16T20:19:19.808Z,10.97
2018-10-16T20:21:48.086Z,11.83
2018-10-16T20:24:16.391Z,9.57
2018-10-16T20:26:44.683Z,10.67
2018-10-16T20:29:12.983Z,10.17
2018-10-16T20:31:41.403Z,10.53
2018-10-16T20:34:09.781Z,9.17
2018-10-16T20:36:38.206Z,10.70
2018-10-16T20:39:09.423Z,9.93
2018-10-16T20:41:37.909Z,9.63
2018-10-16T20:44:06.270Z,10.13
2018-10-16T20:46:34.571Z,12.33
2018-10-16T20:49:03.488Z,13.87
2018-10-16T20:51:31.773Z,9.87
2018-10-16T20:54:00.518Z,13.53
2018-10-16T20:56:28.809Z,9.47
2018-10-16T20:58:57.105Z,11.27
2018-10-16T21:01:25.445Z,10.67
2018-10-16T21:03:53.826Z,10.60
2018-10-16T21:06:22.362Z,11.40
2018-10-16T21:08:50.482Z,9.73
2018-10-16T21:11:18.864Z,11.80
2018-10-16T21:13:47.234Z,13.33
2018-10-16T21:16:15.494Z,14.40
2018-10-16T21:18:43.782Z,11.37
2018-10-16T21:21:12.075Z,12.27
2018-10-16T21:23:40.383Z,16.63
2018-10-16T21:26:08.696Z,11.60
2018-10-16T21:28:36.995Z,11.60
2018-10-16T21:31:05.688Z,9.53
2018-10-16T21:33:33.986Z,10.63
2018-10-16T21:36:02.268Z,10.03
2018-10-16T21:38:30.554Z,11.93
2018-10-16T21:40:58.925Z,10.47
2018-10-16T21:43:27.242Z,11.83
2018-10-16T21:45:55.535Z,10.73
2018-10-16T21:48:23.850Z,13.40
2018-10-16T21:50:52.125Z,13.37
2018-10-16T21:53:20.501Z,11.53
2018-10-16T21:55:48.809Z,11.90
2018-10-16T21:58:17.110Z,11.43
2018-10-16T22:00:50.983Z,14.17
2018-10-16T22:03:19.221Z,11.00
2018-10-16T22:05:47.497Z,11.87
2018-10-16T22:08:15.849Z,13.30
2018-10-16T22:10:44.078Z,10.27
2018-10-16T22:13:12.414Z,11.67
2018-10-16T22:15:40.642Z,14.07
2018-10-16T22:18:09.018Z,14.33
2018-10-16T22:20:37.393Z,13.37
2018-10-16T22:23:05.826Z,15.53
2018-10-16T22:25:34.152Z,16.00
2018-10-16T22:28:02.473Z,13.87
2018-10-16T22:30:30.778Z,14.37
2018-10-16T22:32:59.078Z,13.93
2018-10-16T22:35:27.468Z,15.83
2018-10-16T22:37:55.879Z,13.23
2018-10-16T22:40:24.265Z,13.23
2018-10-16T22:42:52.633Z,14.47
2018-10-16T22:45:20.988Z,15.20
2018-10-16T22:47:49.342Z,13.70
2018-10-16T22:50:17.699Z,12.60
2018-10-16T22:52:45.978Z,14.30
2018-10-16T22:55:14.485Z,13.23
2018-10-16T22:57:42.703Z,17.83
2018-10-16T23:00:17.999Z,15.30
2018-10-16T23:02:47.328Z,15.13
2018-10-16T23:05:15.819Z,14.07
2018-10-16T23:07:45.023Z,14.33
2018-10-16T23:10:13.731Z,15.63
2018-10-16T23:12:42.285Z,13.33
2018-10-16T23:15:11.502Z,13.00
2018-10-16T23:17:40.112Z,16.93
2018-10-16T23:20:09.638Z,12.70
2018-10-16T23:22:37.926Z,15.00
2018-10-16T23:25:06.525Z,14.10
2018-10-16T23:27:35.034Z,15.17
2018-10-16T23:30:03.386Z,15.27
2018-10-16T23:32:31.714Z,14.17
2018-10-16T23:35:00.099Z,14.50
2018-10-16T23:37:28.343Z,15.40
2018-10-16T23:39:56.691Z,16.03
2018-10-16T23:42:25.011Z,18.07
2018-10-16T23:44:53.383Z,15.00
2018-10-16T23:47:21.717Z,15.00
2018-10-16T23:49:50.002Z,17.77
2018-10-16T23:52:18.418Z,16.80
2018-10-16T23:54:46.763Z,14.87
2018-10-16T23:57:15.137Z,15.27
2018-10-16T23:59:43.457Z,14.93
